sensor_id;sensor_type;location;lat;lon;timestamp;P1;durP1;ratioP1;P2;durP2;ratioP2
62554;SDS011;48610;52.144;8.624;2024-02-21T00:02:36;22.30;;;10.93;;
62554;SDS011;48610;52.144;8.624;2024-02-21T00:05:37;24.48;;;11.55;;
62554;SDS011;48610;52.144;8.624;2024-02-21T00:08:38;26.58;;;12.07;;
62554;SDS011;48610;52.144;8.624;2024-02-21T00:11:38;23.95;;;8.82;;
62554;SDS011;48610;52.144;8.624;2024-02-21T00:14:39;22.85;;;11.32;;
62554;SDS011;48610;52.144;8.624;2024-02-21T00:17:40;30.88;;;10.70;;
62554;SDS011;48610;52.144;8.624;2024-02-21T00:20:41;16.00;;;9.07;;
62554;SDS011;48610;52.144;8.624;2024-02-21T00:23:41;27.63;;;10.88;;
62554;SDS011;48610;52.144;8.624;2024-02-21T00:26:42;29.45;;;10.90;;
62554;SDS011;48610;52.144;8.624;2024-02-21T00:29:42;20.75;;;11.07;;
62554;SDS011;48610;52.144;8.624;2024-02-21T00:32:43;25.48;;;11.02;;
62554;SDS011;48610;52.144;8.624;2024-02-21T00:35:43;13.98;;;5.55;;
62554;SDS011;48610;52.144;8.624;2024-02-21T00:38:44;23.38;;;11.60;;
62554;SDS011;48610;52.144;8.624;2024-02-21T00:41:45;19.33;;;9.82;;
62554;SDS011;48610;52.144;8.624;2024-02-21T00:44:45;22.60;;;10.68;;
62554;SDS011;48610;52.144;8.624;2024-02-21T00:47:46;20.77;;;11.68;;
62554;SDS011;48610;52.144;8.624;2024-02-21T00:50:46;22.20;;;7.55;;
62554;SDS011;48610;52.144;8.624;2024-02-21T00:53:47;27.58;;;12.45;;
62554;SDS011;48610;52.144;8.624;2024-02-21T00:56:47;19.20;;;7.57;;
62554;SDS011;48610;52.144;8.624;2024-02-21T00:59:48;19.70;;;10.93;;
62554;SDS011;48610;52.144;8.624;2024-02-21T01:02:49;15.38;;;9.13;;
62554;SDS011;48610;52.144;8.624;2024-02-21T01:05:49;23.88;;;10.65;;
62554;SDS011;48610;52.144;8.624;2024-02-21T01:08:50;26.92;;;11.90;;
62554;SDS011;48610;52.144;8.624;2024-02-21T01:11:50;19.60;;;9.90;;
62554;SDS011;48610;52.144;8.624;2024-02-21T01:14:51;12.68;;;7.28;;
62554;SDS011;48610;52.144;8.624;2024-02-21T01:17:52;27.92;;;11.45;;
62554;SDS011;48610;52.144;8.624;2024-02-21T01:20:54;22.08;;;10.73;;
62554;SDS011;48610;52.144;8.624;2024-02-21T01:23:55;26.40;;;10.57;;
62554;SDS011;48610;52.144;8.624;2024-02-21T01:26:55;22.60;;;10.88;;
62554;SDS011;48610;52.144;8.624;2024-02-21T01:29:56;15.70;;;7.88;;
62554;SDS011;48610;52.144;8.624;2024-02-21T01:32:56;16.58;;;6.80;;
62554;SDS011;48610;52.144;8.624;2024-02-21T01:35:57;22.85;;;11.43;;
62554;SDS011;48610;52.144;8.624;2024-02-21T01:38:57;37.13;;;10.45;;
62554;SDS011;48610;52.144;8.624;2024-02-21T01:41:58;24.05;;;10.82;;
62554;SDS011;48610;52.144;8.624;2024-02-21T01:44:58;14.75;;;6.90;;
62554;SDS011;48610;52.144;8.624;2024-02-21T01:47:59;33.00;;;10.88;;
62554;SDS011;48610;52.144;8.624;2024-02-21T01:51:00;29.08;;;10.63;;
62554;SDS011;48610;52.144;8.624;2024-02-21T01:54:02;13.80;;;7.45;;
62554;SDS011;48610;52.144;8.624;2024-02-21T01:57:03;17.00;;;8.68;;
62554;SDS011;48610;52.144;8.624;2024-02-21T02:00:04;30.27;;;11.52;;
62554;SDS011;48610;52.144;8.624;2024-02-21T02:03:05;24.45;;;10.05;;
62554;SDS011;48610;52.144;8.624;2024-02-21T02:06:06;22.17;;;10.13;;
62554;SDS011;48610;52.144;8.624;2024-02-21T02:09:07;26.38;;;11.23;;
62554;SDS011;48610;52.144;8.624;2024-02-21T02:12:07;23.38;;;11.32;;
62554;SDS011;48610;52.144;8.624;2024-02-21T02:15:08;23.63;;;9.38;;
62554;SDS011;48610;52.144;8.624;2024-02-21T02:18:09;17.52;;;10.65;;
62554;SDS011;48610;52.144;8.624;2024-02-21T02:21:13;19.88;;;10.52;;
62554;SDS011;48610;52.144;8.624;2024-02-21T02:24:24;20.73;;;10.23;;
62554;SDS011;48610;52.144;8.624;2024-02-21T02:27:25;25.30;;;11.23;;
62554;SDS011;48610;52.144;8.624;2024-02-21T02:30:26;27.45;;;11.30;;
62554;SDS011;48610;52.144;8.624;2024-02-21T02:33:27;16.40;;;7.70;;
62554;SDS011;48610;52.144;8.624;2024-02-21T02:36:27;19.50;;;11.02;;
62554;SDS011;48610;52.144;8.624;2024-02-21T02:39:28;21.35;;;10.98;;
62554;SDS011;48610;52.144;8.624;2024-02-21T02:42:28;22.35;;;11.23;;
62554;SDS011;48610;52.144;8.624;2024-02-21T02:45:29;25.17;;;12.30;;
62554;SDS011;48610;52.144;8.624;2024-02-21T02:48:30;25.05;;;9.55;;
62554;SDS011;48610;52.144;8.624;2024-02-21T02:51:30;22.08;;;10.73;;
62554;SDS011;48610;52.144;8.624;2024-02-21T02:54:31;33.55;;;12.68;;
62554;SDS011;48610;52.144;8.624;2024-02-21T02:57:31;25.98;;;10.77;;
62554;SDS011;48610;52.144;8.624;2024-02-21T03:00:32;23.75;;;10.40;;
62554;SDS011;48610;52.144;8.624;2024-02-21T03:03:36;26.10;;;11.85;;
62554;SDS011;48610;52.144;8.624;2024-02-21T03:06:36;25.65;;;11.65;;
62554;SDS011;48610;52.144;8.624;2024-02-21T03:09:37;19.35;;;9.32;;
62554;SDS011;48610;52.144;8.624;2024-02-21T03:12:38;18.23;;;9.63;;
62554;SDS011;48610;52.144;8.624;2024-02-21T03:15:39;25.35;;;11.52;;
62554;SDS011;48610;52.144;8.624;2024-02-21T03:18:39;27.00;;;11.27;;
62554;SDS011;48610;52.144;8.624;2024-02-21T03:21:42;26.25;;;11.32;;
62554;SDS011;48610;52.144;8.624;2024-02-21T03:24:43;26.52;;;11.63;;
62554;SDS011;48610;52.144;8.624;2024-02-21T03:27:43;28.58;;;11.65;;
62554;SDS011;48610;52.144;8.624;2024-02-21T03:30:44;23.15;;;10.80;;
62554;SDS011;48610;52.144;8.624;2024-02-21T03:33:44;22.55;;;11.35;;
62554;SDS011;48610;52.144;8.624;2024-02-21T03:36:45;24.45;;;10.10;;
62554;SDS011;48610;52.144;8.624;2024-02-21T03:39:45;24.35;;;10.63;;
62554;SDS011;48610;52.144;8.624;2024-02-21T03:42:46;30.02;;;9.85;;
62554;SDS011;48610;52.144;8.624;2024-02-21T03:45:47;16.55;;;8.40;;
62554;SDS011;48610;52.144;8.624;2024-02-21T03:48:47;24.02;;;10.82;;
62554;SDS011;48610;52.144;8.624;2024-02-21T03:51:48;29.35;;;11.73;;
62554;SDS011;48610;52.144;8.624;2024-02-21T03:54:48;27.35;;;11.65;;
62554;SDS011;48610;52.144;8.624;2024-02-21T03:57:49;19.75;;;11.20;;
62554;SDS011;48610;52.144;8.624;2024-02-21T04:00:49;25.83;;;11.18;;
62554;SDS011;48610;52.144;8.624;2024-02-21T04:03:50;21.83;;;10.38;;
62554;SDS011;48610;52.144;8.624;2024-02-21T04:06:50;19.05;;;8.60;;
62554;SDS011;48610;52.144;8.624;2024-02-21T04:09:51;13.55;;;6.28;;
62554;SDS011;48610;52.144;8.624;2024-02-21T04:12:52;20.60;;;9.82;;
62554;SDS011;48610;52.144;8.624;2024-02-21T04:15:53;20.67;;;10.13;;
62554;SDS011;48610;52.144;8.624;2024-02-21T04:18:53;17.58;;;9.32;;
62554;SDS011;48610;52.144;8.624;2024-02-21T04:21:54;26.05;;;10.75;;
62554;SDS011;48610;52.144;8.624;2024-02-21T04:24:54;22.92;;;11.50;;
62554;SDS011;48610;52.144;8.624;2024-02-21T04:27:55;23.45;;;10.40;;
62554;SDS011;48610;52.144;8.624;2024-02-21T04:30:56;25.30;;;10.90;;
62554;SDS011;48610;52.144;8.624;2024-02-21T04:33:56;16.15;;;6.45;;
62554;SDS011;48610;52.144;8.624;2024-02-21T04:36:57;15.27;;;7.90;;
62554;SDS011;48610;52.144;8.624;2024-02-21T04:39:58;17.30;;;8.32;;
62554;SDS011;48610;52.144;8.624;2024-02-21T04:42:59;28.85;;;10.55;;
62554;SDS011;48610;52.144;8.624;2024-02-21T04:45:59;27.55;;;10.55;;
62554;SDS011;48610;52.144;8.624;2024-02-21T04:49:00;22.17;;;10.60;;
62554;SDS011;48610;52.144;8.624;2024-02-21T04:52:00;20.80;;;5.32;;
62554;SDS011;48610;52.144;8.624;2024-02-21T04:55:01;25.13;;;12.23;;
62554;SDS011;48610;52.144;8.624;2024-02-21T04:58:01;25.40;;;10.63;;
62554;SDS011;48610;52.144;8.624;2024-02-21T05:01:02;21.50;;;10.55;;
62554;SDS011;48610;52.144;8.624;2024-02-21T05:04:03;22.58;;;10.98;;
62554;SDS011;48610;52.144;8.624;2024-02-21T05:07:04;18.13;;;10.65;;
62554;SDS011;48610;52.144;8.624;2024-02-21T05:10:06;25.13;;;11.23;;
62554;SDS011;48610;52.144;8.624;2024-02-21T05:13:07;28.35;;;11.57;;
62554;SDS011;48610;52.144;8.624;2024-02-21T05:16:08;18.08;;;9.82;;
62554;SDS011;48610;52.144;8.624;2024-02-21T05:19:09;21.17;;;10.98;;
62554;SDS011;48610;52.144;8.624;2024-02-21T05:22:10;18.23;;;8.00;;
62554;SDS011;48610;52.144;8.624;2024-02-21T05:25:11;18.05;;;7.35;;
62554;SDS011;48610;52.144;8.624;2024-02-21T05:28:11;19.83;;;9.55;;
62554;SDS011;48610;52.144;8.624;2024-02-21T05:31:12;23.70;;;10.27;;
62554;SDS011;48610;52.144;8.624;2024-02-21T05:34:14;17.77;;;7.70;;
62554;SDS011;48610;52.144;8.624;2024-02-21T05:37:15;22.67;;;10.45;;
62554;SDS011;48610;52.144;8.624;2024-02-21T05:40:15;13.85;;;8.02;;
62554;SDS011;48610;52.144;8.624;2024-02-21T05:43:16;18.00;;;8.32;;
62554;SDS011;48610;52.144;8.624;2024-02-21T05:46:19;31.75;;;10.55;;
62554;SDS011;48610;52.144;8.624;2024-02-21T05:49:19;23.08;;;11.52;;
62554;SDS011;48610;52.144;8.624;2024-02-21T05:52:20;27.90;;;10.68;;
62554;SDS011;48610;52.144;8.624;2024-02-21T05:55:20;21.73;;;9.82;;
62554;SDS011;48610;52.144;8.624;2024-02-21T05:58:21;22.05;;;10.00;;
62554;SDS011;48610;52.144;8.624;2024-02-21T06:01:22;20.63;;;10.07;;
62554;SDS011;48610;52.144;8.624;2024-02-21T06:04:22;22.63;;;9.32;;
62554;SDS011;48610;52.144;8.624;2024-02-21T06:07:23;29.60;;;11.32;;
62554;SDS011;48610;52.144;8.624;2024-02-21T06:10:24;32.85;;;11.50;;
62554;SDS011;48610;52.144;8.624;2024-02-21T06:13:24;28.58;;;11.82;;
62554;SDS011;48610;52.144;8.624;2024-02-21T06:16:25;18.58;;;10.65;;
62554;SDS011;48610;52.144;8.624;2024-02-21T06:19:25;25.92;;;11.45;;
62554;SDS011;48610;52.144;8.624;2024-02-21T06:22:26;19.23;;;11.10;;
62554;SDS011;48610;52.144;8.624;2024-02-21T06:25:26;15.85;;;8.13;;
62554;SDS011;48610;52.144;8.624;2024-02-21T06:28:27;20.88;;;11.10;;
62554;SDS011;48610;52.144;8.624;2024-02-21T06:31:27;17.95;;;10.63;;
62554;SDS011;48610;52.144;8.624;2024-02-21T06:34:28;20.10;;;10.57;;
62554;SDS011;48610;52.144;8.624;2024-02-21T06:37:29;19.50;;;10.50;;
62554;SDS011;48610;52.144;8.624;2024-02-21T06:40:30;16.60;;;7.95;;
62554;SDS011;48610;52.144;8.624;2024-02-21T06:43:38;20.70;;;11.05;;
62554;SDS011;48610;52.144;8.624;2024-02-21T06:46:38;30.20;;;10.82;;
62554;SDS011;48610;52.144;8.624;2024-02-21T06:49:39;20.10;;;10.18;;
62554;SDS011;48610;52.144;8.624;2024-02-21T06:52:39;10.55;;;6.28;;
62554;SDS011;48610;52.144;8.624;2024-02-21T06:55:40;17.17;;;7.68;;
62554;SDS011;48610;52.144;8.624;2024-02-21T06:58:40;22.73;;;9.18;;
62554;SDS011;48610;52.144;8.624;2024-02-21T07:01:45;18.58;;;8.70;;
62554;SDS011;48610;52.144;8.624;2024-02-21T07:04:48;18.13;;;7.93;;
62554;SDS011;48610;52.144;8.624;2024-02-21T07:07:48;25.15;;;10.32;;
62554;SDS011;48610;52.144;8.624;2024-02-21T07:10:49;17.25;;;8.30;;
62554;SDS011;48610;52.144;8.624;2024-02-21T07:13:49;8.90;;;5.40;;
62554;SDS011;48610;52.144;8.624;2024-02-21T07:16:51;22.70;;;7.95;;
62554;SDS011;48610;52.144;8.624;2024-02-21T07:19:51;20.90;;;8.40;;
62554;SDS011;48610;52.144;8.624;2024-02-21T07:22:52;19.38;;;7.78;;
62554;SDS011;48610;52.144;8.624;2024-02-21T07:25:52;17.40;;;8.23;;
62554;SDS011;48610;52.144;8.624;2024-02-21T07:28:53;14.10;;;7.57;;
62554;SDS011;48610;52.144;8.624;2024-02-21T07:31:53;8.93;;;5.13;;
62554;SDS011;48610;52.144;8.624;2024-02-21T07:34:54;14.85;;;7.15;;
62554;SDS011;48610;52.144;8.624;2024-02-21T07:37:54;11.85;;;6.43;;
62554;SDS011;48610;52.144;8.624;2024-02-21T07:40:55;18.00;;;7.70;;
62554;SDS011;48610;52.144;8.624;2024-02-21T07:43:56;15.25;;;7.20;;
62554;SDS011;48610;52.144;8.624;2024-02-21T07:46:56;16.00;;;6.45;;
62554;SDS011;48610;52.144;8.624;2024-02-21T07:49:57;14.43;;;6.25;;
62554;SDS011;48610;52.144;8.624;2024-02-21T07:52:58;15.27;;;6.53;;
62554;SDS011;48610;52.144;8.624;2024-02-21T07:55:58;18.35;;;5.78;;
62554;SDS011;48610;52.144;8.624;2024-02-21T07:58:59;15.20;;;5.43;;
62554;SDS011;48610;52.144;8.624;2024-02-21T08:02:00;11.75;;;5.70;;
62554;SDS011;48610;52.144;8.624;2024-02-21T08:05:01;16.77;;;6.70;;
62554;SDS011;48610;52.144;8.624;2024-02-21T08:08:02;9.07;;;4.05;;
62554;SDS011;48610;52.144;8.624;2024-02-21T08:11:04;15.95;;;5.82;;
62554;SDS011;48610;52.144;8.624;2024-02-21T08:14:04;13.02;;;5.22;;
62554;SDS011;48610;52.144;8.624;2024-02-21T08:17:05;10.65;;;5.82;;
62554;SDS011;48610;52.144;8.624;2024-02-21T08:20:06;12.27;;;4.82;;
62554;SDS011;48610;52.144;8.624;2024-02-21T08:23:07;10.90;;;5.18;;
62554;SDS011;48610;52.144;8.624;2024-02-21T08:26:07;13.27;;;5.55;;
62554;SDS011;48610;52.144;8.624;2024-02-21T08:29:08;12.23;;;4.95;;
62554;SDS011;48610;52.144;8.624;2024-02-21T08:32:08;10.05;;;4.90;;
62554;SDS011;48610;52.144;8.624;2024-02-21T08:35:09;13.57;;;5.22;;
62554;SDS011;48610;52.144;8.624;2024-02-21T08:38:09;11.85;;;4.45;;
62554;SDS011;48610;52.144;8.624;2024-02-21T08:41:10;9.43;;;4.75;;
62554;SDS011;48610;52.144;8.624;2024-02-21T08:44:11;10.52;;;4.70;;
62554;SDS011;48610;52.144;8.624;2024-02-21T08:47:11;12.98;;;5.10;;
62554;SDS011;48610;52.144;8.624;2024-02-21T08:50:12;15.25;;;4.85;;
62554;SDS011;48610;52.144;8.624;2024-02-21T08:53:13;11.02;;;4.45;;
62554;SDS011;48610;52.144;8.624;2024-02-21T08:56:14;9.73;;;4.60;;
62554;SDS011;48610;52.144;8.624;2024-02-21T08:59:15;8.05;;;3.83;;
62554;SDS011;48610;52.144;8.624;2024-02-21T09:02:15;10.32;;;4.65;;
62554;SDS011;48610;52.144;8.624;2024-02-21T09:05:16;11.10;;;4.35;;
62554;SDS011;48610;52.144;8.624;2024-02-21T09:08:16;12.75;;;3.92;;
62554;SDS011;48610;52.144;8.624;2024-02-21T09:11:18;13.40;;;4.90;;
62554;SDS011;48610;52.144;8.624;2024-02-21T09:14:19;12.77;;;4.50;;
62554;SDS011;48610;52.144;8.624;2024-02-21T09:17:19;13.55;;;4.60;;
62554;SDS011;48610;52.144;8.624;2024-02-21T09:20:23;13.52;;;4.93;;
62554;SDS011;48610;52.144;8.624;2024-02-21T09:23:24;10.25;;;4.55;;
62554;SDS011;48610;52.144;8.624;2024-02-21T09:26:25;14.50;;;4.50;;
62554;SDS011;48610;52.144;8.624;2024-02-21T09:29:25;11.05;;;4.47;;
62554;SDS011;48610;52.144;8.624;2024-02-21T09:32:26;10.60;;;3.83;;
62554;SDS011;48610;52.144;8.624;2024-02-21T09:35:26;9.15;;;4.25;;
62554;SDS011;48610;52.144;8.624;2024-02-21T09:38:27;9.10;;;3.67;;
62554;SDS011;48610;52.144;8.624;2024-02-21T09:41:28;9.50;;;4.18;;
62554;SDS011;48610;52.144;8.624;2024-02-21T09:44:31;10.75;;;3.90;;
62554;SDS011;48610;52.144;8.624;2024-02-21T09:47:50;7.65;;;4.03;;
62554;SDS011;48610;52.144;8.624;2024-02-21T09:51:09;4.72;;;3.03;;
62554;SDS011;48610;52.144;8.624;2024-02-21T09:54:12;8.63;;;4.18;;
62554;SDS011;48610;52.144;8.624;2024-02-21T09:57:12;9.27;;;4.10;;
62554;SDS011;48610;52.144;8.624;2024-02-21T10:00:13;8.02;;;3.75;;
62554;SDS011;48610;52.144;8.624;2024-02-21T10:03:21;11.13;;;3.88;;
62554;SDS011;48610;52.144;8.624;2024-02-21T10:06:22;6.97;;;3.45;;
62554;SDS011;48610;52.144;8.624;2024-02-21T10:09:23;12.75;;;4.28;;
62554;SDS011;48610;52.144;8.624;2024-02-21T10:12:27;10.57;;;3.75;;
62554;SDS011;48610;52.144;8.624;2024-02-21T10:15:28;8.30;;;3.55;;
62554;SDS011;48610;52.144;8.624;2024-02-21T10:18:28;7.85;;;3.70;;
62554;SDS011;48610;52.144;8.624;2024-02-21T10:21:29;4.70;;;2.88;;
62554;SDS011;48610;52.144;8.624;2024-02-21T10:24:33;6.43;;;3.33;;
62554;SDS011;48610;52.144;8.624;2024-02-21T10:27:34;8.95;;;3.55;;
62554;SDS011;48610;52.144;8.624;2024-02-21T10:30:36;6.88;;;3.47;;
62554;SDS011;48610;52.144;8.624;2024-02-21T10:33:37;8.68;;;3.03;;
62554;SDS011;48610;52.144;8.624;2024-02-21T10:36:38;6.70;;;3.80;;
62554;SDS011;48610;52.144;8.624;2024-02-21T10:39:39;7.90;;;3.20;;
62554;SDS011;48610;52.144;8.624;2024-02-21T10:42:41;6.07;;;3.28;;
62554;SDS011;48610;52.144;8.624;2024-02-21T10:45:42;6.28;;;3.60;;
62554;SDS011;48610;52.144;8.624;2024-02-21T10:48:44;6.78;;;2.45;;
62554;SDS011;48610;52.144;8.624;2024-02-21T10:51:45;7.55;;;3.50;;
62554;SDS011;48610;52.144;8.624;2024-02-21T10:54:58;7.35;;;3.50;;
62554;SDS011;48610;52.144;8.624;2024-02-21T10:58:18;9.40;;;2.92;;
62554;SDS011;48610;52.144;8.624;2024-02-21T11:01:19;6.95;;;3.63;;
62554;SDS011;48610;52.144;8.624;2024-02-21T11:04:21;13.18;;;4.28;;
62554;SDS011;48610;52.144;8.624;2024-02-21T11:07:22;6.05;;;3.75;;
62554;SDS011;48610;52.144;8.624;2024-02-21T11:10:23;3.28;;;2.75;;
62554;SDS011;48610;52.144;8.624;2024-02-21T11:13:34;8.27;;;3.83;;
62554;SDS011;48610;52.144;8.624;2024-02-21T11:16:39;8.25;;;3.75;;
62554;SDS011;48610;52.144;8.624;2024-02-21T11:19:40;9.05;;;3.88;;
62554;SDS011;48610;52.144;8.624;2024-02-21T11:22:41;9.65;;;4.35;;
62554;SDS011;48610;52.144;8.624;2024-02-21T11:25:43;8.15;;;4.80;;
62554;SDS011;48610;52.144;8.624;2024-02-21T11:28:43;7.50;;;4.30;;
62554;SDS011;48610;52.144;8.624;2024-02-21T11:31:44;10.63;;;5.00;;
62554;SDS011;48610;52.144;8.624;2024-02-21T11:34:58;7.28;;;4.00;;
62554;SDS011;48610;52.144;8.624;2024-02-21T11:38:10;9.88;;;4.85;;
62554;SDS011;48610;52.144;8.624;2024-02-21T11:41:16;11.80;;;4.40;;
62554;SDS011;48610;52.144;8.624;2024-02-21T11:44:16;11.55;;;5.28;;
62554;SDS011;48610;52.144;8.624;2024-02-21T11:47:17;9.35;;;5.13;;
62554;SDS011;48610;52.144;8.624;2024-02-21T11:50:18;10.13;;;5.45;;
62554;SDS011;48610;52.144;8.624;2024-02-21T11:53:19;9.77;;;5.72;;
62554;SDS011;48610;52.144;8.624;2024-02-21T11:56:20;12.25;;;5.28;;
62554;SDS011;48610;52.144;8.624;2024-02-21T11:59:22;9.20;;;4.93;;
62554;SDS011;48610;52.144;8.624;2024-02-21T12:02:23;8.73;;;4.97;;
62554;SDS011;48610;52.144;8.624;2024-02-21T12:05:25;10.43;;;5.30;;
62554;SDS011;48610;52.144;8.624;2024-02-21T12:08:41;11.93;;;5.45;;
62554;SDS011;48610;52.144;8.624;2024-02-21T12:11:43;6.10;;;3.03;;
62554;SDS011;48610;52.144;8.624;2024-02-21T12:14:44;11.93;;;5.32;;
62554;SDS011;48610;52.144;8.624;2024-02-21T12:17:45;12.43;;;5.88;;
62554;SDS011;48610;52.144;8.624;2024-02-21T12:20:47;7.90;;;4.43;;
62554;SDS011;48610;52.144;8.624;2024-02-21T12:23:48;11.00;;;4.75;;
62554;SDS011;48610;52.144;8.624;2024-02-21T12:26:49;13.23;;;4.85;;
62554;SDS011;48610;52.144;8.624;2024-02-21T12:29:50;10.75;;;4.28;;
62554;SDS011;48610;52.144;8.624;2024-02-21T12:32:51;7.85;;;4.75;;
62554;SDS011;48610;52.144;8.624;2024-02-21T12:35:51;9.88;;;3.58;;
62554;SDS011;48610;52.144;8.624;2024-02-21T12:38:54;10.38;;;4.90;;
62554;SDS011;48610;52.144;8.624;2024-02-21T12:41:55;11.07;;;5.30;;
62554;SDS011;48610;52.144;8.624;2024-02-21T12:44:56;7.43;;;4.22;;
62554;SDS011;48610;52.144;8.624;2024-02-21T12:47:57;11.13;;;4.85;;
62554;SDS011;48610;52.144;8.624;2024-02-21T12:50:57;12.32;;;5.20;;
62554;SDS011;48610;52.144;8.624;2024-02-21T12:53:58;6.05;;;3.55;;
62554;SDS011;48610;52.144;8.624;2024-02-21T12:56:59;9.07;;;4.50;;
62554;SDS011;48610;52.144;8.624;2024-02-21T13:00:02;14.02;;;5.40;;
62554;SDS011;48610;52.144;8.624;2024-02-21T13:03:03;6.13;;;4.60;;
62554;SDS011;48610;52.144;8.624;2024-02-21T13:06:04;12.27;;;4.63;;
62554;SDS011;48610;52.144;8.624;2024-02-21T13:09:06;11.88;;;5.25;;
62554;SDS011;48610;52.144;8.624;2024-02-21T13:12:10;13.10;;;4.82;;
62554;SDS011;48610;52.144;8.624;2024-02-21T13:15:12;12.63;;;5.13;;
62554;SDS011;48610;52.144;8.624;2024-02-21T13:18:12;7.90;;;4.35;;
62554;SDS011;48610;52.144;8.624;2024-02-21T13:21:13;13.27;;;6.25;;
62554;SDS011;48610;52.144;8.624;2024-02-21T13:24:14;9.60;;;5.20;;
62554;SDS011;48610;52.144;8.624;2024-02-21T13:27:14;13.85;;;5.68;;
62554;SDS011;48610;52.144;8.624;2024-02-21T13:30:15;9.48;;;5.18;;
62554;SDS011;48610;52.144;8.624;2024-02-21T13:33:15;12.35;;;4.72;;
62554;SDS011;48610;52.144;8.624;2024-02-21T13:36:16;15.63;;;5.40;;
62554;SDS011;48610;52.144;8.624;2024-02-21T13:39:17;11.57;;;5.75;;
62554;SDS011;48610;52.144;8.624;2024-02-21T13:42:19;10.20;;;4.90;;
62554;SDS011;48610;52.144;8.624;2024-02-21T13:45:20;11.20;;;5.03;;
62554;SDS011;48610;52.144;8.624;2024-02-21T13:48:20;9.65;;;5.32;;
62554;SDS011;48610;52.144;8.624;2024-02-21T13:51:21;13.80;;;4.93;;
62554;SDS011;48610;52.144;8.624;2024-02-21T13:54:22;7.50;;;4.13;;
62554;SDS011;48610;52.144;8.624;2024-02-21T13:57:22;14.40;;;4.70;;
62554;SDS011;48610;52.144;8.624;2024-02-21T14:00:23;10.32;;;4.43;;
62554;SDS011;48610;52.144;8.624;2024-02-21T14:03:23;11.63;;;4.32;;
62554;SDS011;48610;52.144;8.624;2024-02-21T14:06:25;6.88;;;3.65;;
62554;SDS011;48610;52.144;8.624;2024-02-21T14:09:26;8.85;;;3.70;;
62554;SDS011;48610;52.144;8.624;2024-02-21T14:12:27;8.15;;;3.70;;
62554;SDS011;48610;52.144;8.624;2024-02-21T14:15:28;10.18;;;3.72;;
62554;SDS011;48610;52.144;8.624;2024-02-21T14:18:28;8.98;;;3.83;;
62554;SDS011;48610;52.144;8.624;2024-02-21T14:21:29;5.07;;;3.33;;
62554;SDS011;48610;52.144;8.624;2024-02-21T14:24:30;11.80;;;3.88;;
62554;SDS011;48610;52.144;8.624;2024-02-21T14:27:31;4.43;;;2.85;;
62554;SDS011;48610;52.144;8.624;2024-02-21T14:30:32;8.15;;;2.92;;
62554;SDS011;48610;52.144;8.624;2024-02-21T14:33:32;12.00;;;3.45;;
62554;SDS011;48610;52.144;8.624;2024-02-21T14:36:33;10.68;;;3.20;;
62554;SDS011;48610;52.144;8.624;2024-02-21T14:39:34;8.80;;;3.60;;
62554;SDS011;48610;52.144;8.624;2024-02-21T14:42:35;8.32;;;3.75;;
62554;SDS011;48610;52.144;8.624;2024-02-21T14:45:36;7.80;;;3.28;;
62554;SDS011;48610;52.144;8.624;2024-02-21T14:48:38;8.15;;;3.70;;
62554;SDS011;48610;52.144;8.624;2024-02-21T14:51:38;8.40;;;3.42;;
62554;SDS011;48610;52.144;8.624;2024-02-21T14:54:39;9.77;;;3.30;;
62554;SDS011;48610;52.144;8.624;2024-02-21T14:57:43;6.47;;;2.80;;
62554;SDS011;48610;52.144;8.624;2024-02-21T15:00:44;6.10;;;3.42;;
62554;SDS011;48610;52.144;8.624;2024-02-21T15:03:46;4.75;;;2.85;;
62554;SDS011;48610;52.144;8.624;2024-02-21T15:06:47;9.30;;;3.20;;
62554;SDS011;48610;52.144;8.624;2024-02-21T15:09:48;8.80;;;3.60;;
62554;SDS011;48610;52.144;8.624;2024-02-21T15:12:49;4.63;;;2.83;;
62554;SDS011;48610;52.144;8.624;2024-02-21T15:15:50;6.50;;;2.90;;
62554;SDS011;48610;52.144;8.624;2024-02-21T15:18:51;5.32;;;2.45;;
62554;SDS011;48610;52.144;8.624;2024-02-21T15:21:52;8.98;;;3.05;;
62554;SDS011;48610;52.144;8.624;2024-02-21T15:24:53;10.63;;;3.50;;
62554;SDS011;48610;52.144;8.624;2024-02-21T15:27:54;7.18;;;3.22;;
62554;SDS011;48610;52.144;8.624;2024-02-21T15:30:54;8.27;;;3.00;;
62554;SDS011;48610;52.144;8.624;2024-02-21T15:33:55;7.68;;;2.70;;
62554;SDS011;48610;52.144;8.624;2024-02-21T15:36:56;7.68;;;2.88;;
62554;SDS011;48610;52.144;8.624;2024-02-21T15:39:56;7.40;;;2.90;;
62554;SDS011;48610;52.144;8.624;2024-02-21T15:42:57;10.00;;;3.53;;
62554;SDS011;48610;52.144;8.624;2024-02-21T15:45:57;9.77;;;3.35;;
62554;SDS011;48610;52.144;8.624;2024-02-21T15:48:58;6.82;;;2.78;;
62554;SDS011;48610;52.144;8.624;2024-02-21T15:51:59;7.35;;;3.30;;
62554;SDS011;48610;52.144;8.624;2024-02-21T15:54:59;11.77;;;3.20;;
62554;SDS011;48610;52.144;8.624;2024-02-21T15:58:00;9.75;;;2.92;;
62554;SDS011;48610;52.144;8.624;2024-02-21T16:01:04;6.95;;;3.28;;
62554;SDS011;48610;52.144;8.624;2024-02-21T16:04:05;5.95;;;3.28;;
62554;SDS011;48610;52.144;8.624;2024-02-21T16:07:05;7.68;;;2.90;;
62554;SDS011;48610;52.144;8.624;2024-02-21T16:10:06;10.30;;;3.50;;
62554;SDS011;48610;52.144;8.624;2024-02-21T16:13:07;6.22;;;3.05;;
62554;SDS011;48610;52.144;8.624;2024-02-21T16:16:10;6.43;;;2.90;;
62554;SDS011;48610;52.144;8.624;2024-02-21T16:19:11;7.50;;;2.92;;
62554;SDS011;48610;52.144;8.624;2024-02-21T16:22:11;7.15;;;3.22;;
62554;SDS011;48610;52.144;8.624;2024-02-21T16:25:13;6.20;;;2.97;;
62554;SDS011;48610;52.144;8.624;2024-02-21T16:28:14;8.95;;;3.53;;
62554;SDS011;48610;52.144;8.624;2024-02-21T16:31:14;8.15;;;3.70;;
62554;SDS011;48610;52.144;8.624;2024-02-21T16:34:16;9.85;;;3.40;;
62554;SDS011;48610;52.144;8.624;2024-02-21T16:37:16;9.43;;;3.47;;
62554;SDS011;48610;52.144;8.624;2024-02-21T16:40:17;9.68;;;3.70;;
62554;SDS011;48610;52.144;8.624;2024-02-21T16:43:18;10.02;;;3.10;;
62554;SDS011;48610;52.144;8.624;2024-02-21T16:46:19;7.47;;;3.47;;
62554;SDS011;48610;52.144;8.624;2024-02-21T16:49:21;7.88;;;2.97;;
62554;SDS011;48610;52.144;8.624;2024-02-21T16:52:21;11.40;;;3.90;;
62554;SDS011;48610;52.144;8.624;2024-02-21T16:55:22;10.20;;;3.03;;
62554;SDS011;48610;52.144;8.624;2024-02-21T16:58:23;10.57;;;3.50;;
62554;SDS011;48610;52.144;8.624;2024-02-21T17:01:23;11.40;;;3.28;;
62554;SDS011;48610;52.144;8.624;2024-02-21T17:04:24;12.98;;;4.15;;
62554;SDS011;48610;52.144;8.624;2024-02-21T17:07:24;8.27;;;3.53;;
62554;SDS011;48610;52.144;8.624;2024-02-21T17:10:25;7.68;;;3.40;;
62554;SDS011;48610;52.144;8.624;2024-02-21T17:13:26;11.00;;;3.65;;
62554;SDS011;48610;52.144;8.624;2024-02-21T17:16:26;7.97;;;3.45;;
62554;SDS011;48610;52.144;8.624;2024-02-21T17:19:27;5.65;;;3.10;;
62554;SDS011;48610;52.144;8.624;2024-02-21T17:22:27;10.43;;;3.22;;
62554;SDS011;48610;52.144;8.624;2024-02-21T17:25:28;11.88;;;3.75;;
62554;SDS011;48610;52.144;8.624;2024-02-21T17:28:29;9.48;;;4.13;;
62554;SDS011;48610;52.144;8.624;2024-02-21T17:31:31;6.57;;;3.08;;
62554;SDS011;48610;52.144;8.624;2024-02-21T17:34:31;6.45;;;2.60;;
62554;SDS011;48610;52.144;8.624;2024-02-21T17:37:32;15.55;;;3.65;;
62554;SDS011;48610;52.144;8.624;2024-02-21T17:40:35;7.38;;;3.60;;
62554;SDS011;48610;52.144;8.624;2024-02-21T17:43:36;4.72;;;3.20;;
62554;SDS011;48610;52.144;8.624;2024-02-21T17:46:42;13.07;;;3.60;;
62554;SDS011;48610;52.144;8.624;2024-02-21T17:49:43;9.80;;;3.47;;
62554;SDS011;48610;52.144;8.624;2024-02-21T17:52:43;8.68;;;3.60;;
62554;SDS011;48610;52.144;8.624;2024-02-21T17:55:44;5.82;;;2.97;;
62554;SDS011;48610;52.144;8.624;2024-02-21T17:58:45;6.07;;;3.40;;